createdAt,value
2022-12-04T00:01:29.112Z,-0.10
2022-12-04T00:04:01.255Z,0.18
2022-12-04T00:06:30.086Z,0.16
2022-12-04T00:08:58.001Z,-0.26
2022-12-04T00:11:30.641Z,0.27
2022-12-04T00:14:06.189Z,0.35
2022-12-04T00:16:36.100Z,0.23
2022-12-04T00:19:05.469Z,0.27
2022-12-04T00:21:33.531Z,-0.07
2022-12-04T00:24:02.044Z,0.21
2022-12-04T00:26:31.365Z,-0.13
2022-12-04T00:28:59.827Z,-0.11
2022-12-04T00:31:31.494Z,0.11
2022-12-04T00:34:00.842Z,-0.17
2022-12-04T00:36:30.626Z,-0.15
2022-12-04T00:39:01.041Z,0.20
2022-12-04T00:41:34.047Z,-0.14
2022-12-04T00:44:05.139Z,0.08
2022-12-04T00:46:33.063Z,-0.77
2022-12-04T00:49:02.797Z,-0.16
2022-12-04T00:51:31.407Z,-0.12
2022-12-04T00:54:02.577Z,0.00
2022-12-04T00:56:30.703Z,-0.04
2022-12-04T00:59:01.484Z,-0.05
2022-12-04T01:01:31.024Z,-0.40
2022-12-04T01:03:59.099Z,0.00
2022-12-04T01:06:33.921Z,-0.21
2022-12-04T01:09:05.442Z,-0.02
2022-12-04T01:11:38.268Z,0.08
2022-12-04T01:14:06.407Z,-0.10
2022-12-04T01:16:38.095Z,-0.40
2022-12-04T01:19:12.356Z,0.02
2022-12-04T01:21:41.371Z,0.02
2022-12-04T01:24:09.877Z,-0.03
2022-12-04T01:26:38.263Z,-0.02
2022-12-04T01:29:06.661Z,-0.08
2022-12-04T01:31:34.901Z,0.06
2022-12-04T01:34:03.123Z,-0.19
2022-12-04T01:36:31.433Z,0.01
2022-12-04T01:38:59.518Z,-0.09
2022-12-04T01:41:30.972Z,-0.16
2022-12-04T01:44:09.553Z,0.12
2022-12-04T01:46:38.569Z,0.12
2022-12-04T01:49:14.107Z,0.05
2022-12-04T01:51:49.015Z,-0.48
2022-12-04T01:54:36.610Z,0.13
2022-12-04T01:57:17.477Z,0.15
2022-12-04T01:59:53.860Z,0.00
2022-12-04T02:02:40.327Z,-0.04
2022-12-04T02:05:13.326Z,-0.11
2022-12-04T02:07:43.589Z,-0.39
2022-12-04T02:10:12.651Z,-0.05
2022-12-04T02:13:15.777Z,-0.01
2022-12-04T02:16:18.307Z,-0.11
2022-12-04T02:19:05.739Z,-0.04
2022-12-04T02:21:40.587Z,-0.25
2022-12-04T02:24:19.386Z,-0.04
2022-12-04T02:27:03.915Z,-0.12
2022-12-04T02:29:57.813Z,-0.31
2022-12-04T02:32:33.452Z,-0.06
2022-12-04T02:35:36.187Z,-0.27
2022-12-04T02:38:14.524Z,-0.02
2022-12-04T02:40:48.480Z,0.01
2022-12-04T02:43:34.063Z,-0.25
2022-12-04T02:46:21.253Z,-0.01
2022-12-04T02:48:53.541Z,-0.08
2022-12-04T02:51:26.056Z,0.08
2022-12-04T02:54:00.748Z,0.08
2022-12-04T02:56:37.125Z,-0.27
2022-12-04T02:59:20.541Z,0.03
2022-12-04T03:01:55.906Z,-0.05
2022-12-04T03:04:30.762Z,-0.09
2022-12-04T03:07:12.379Z,-0.50
2022-12-04T03:10:09.409Z,0.01
2022-12-04T03:12:49.177Z,0.01
2022-12-04T03:15:34.423Z,-0.98
2022-12-04T03:18:16.766Z,-0.34
2022-12-04T03:20:50.177Z,-0.11
2022-12-04T03:23:31.505Z,-0.05
2022-12-04T03:26:15.861Z,-0.34
2022-12-04T03:28:46.883Z,-0.02
2022-12-04T03:31:19.470Z,-0.04
2022-12-04T03:33:48.790Z,-0.15
2022-12-04T03:36:31.258Z,-0.08
2022-12-04T03:39:28.980Z,-0.01
2022-12-04T03:42:06.128Z,0.00
2022-12-04T03:44:48.749Z,-0.05
2022-12-04T03:47:51.530Z,-0.04
2022-12-04T03:50:25.732Z,-0.03
2022-12-04T03:53:22.660Z,-0.29
2022-12-04T03:56:22.264Z,-0.19
2022-12-04T03:59:00.562Z,-0.27
2022-12-04T04:01:36.434Z,-0.40
2022-12-04T04:04:07.685Z,-0.26
2022-12-04T04:06:45.543Z,-0.29
2022-12-04T04:09:19.585Z,-0.06
2022-12-04T04:12:09.929Z,-0.10
2022-12-04T04:15:10.553Z,-0.01
2022-12-04T04:18:08.301Z,-0.04
2022-12-04T04:21:08.774Z,-0.26
2022-12-04T04:24:03.808Z,-0.32
2022-12-04T04:26:42.260Z,-0.13
2022-12-04T04:29:10.815Z,0.04
2022-12-04T04:32:07.584Z,0.03
2022-12-04T04:35:22.133Z,-0.06
2022-12-04T04:38:08.349Z,-0.02
2022-12-04T04:40:52.158Z,0.02
2022-12-04T04:43:47.196Z,-0.24
2022-12-04T04:46:23.860Z,0.03
2022-12-04T04:48:57.001Z,-0.18
2022-12-04T04:51:28.516Z,0.06
2022-12-04T04:54:00.769Z,0.03
2022-12-04T04:56:29.111Z,-0.44
2022-12-04T04:58:57.372Z,-0.12
2022-12-04T05:01:28.624Z,-0.26
2022-12-04T05:03:57.155Z,-0.02
2022-12-04T05:06:25.018Z,-0.33
2022-12-04T05:08:52.911Z,-0.18
2022-12-04T05:11:21.174Z,0.02
2022-12-04T05:13:49.106Z,-0.02
2022-12-04T05:16:17.663Z,-0.23
2022-12-04T05:19:05.913Z,-0.35
2022-12-04T05:21:34.623Z,0.00
2022-12-04T05:24:02.817Z,-0.25
2022-12-04T05:26:30.957Z,-0.06
2022-12-04T05:28:59.301Z,-0.31
2022-12-04T05:31:27.443Z,-0.01
2022-12-04T05:33:57.149Z,0.02
2022-12-04T05:36:27.348Z,-0.03
2022-12-04T05:38:55.610Z,0.08
2022-12-04T05:41:24.664Z,-0.25
2022-12-04T05:43:52.894Z,-0.19
2022-12-04T05:46:21.332Z,-0.01
2022-12-04T05:48:51.701Z,-0.27
2022-12-04T05:51:19.674Z,0.04
2022-12-04T05:53:47.690Z,-0.12
2022-12-04T05:56:15.664Z,-0.05
2022-12-04T05:58:43.481Z,-0.45
2022-12-04T06:01:19.856Z,-0.04
2022-12-04T06:03:47.933Z,-0.63
2022-12-04T06:06:23.519Z,0.02
2022-12-04T06:08:53.918Z,-0.03
2022-12-04T06:11:27.717Z,0.02
2022-12-04T06:13:56.839Z,0.10
2022-12-04T06:16:32.319Z,0.09
2022-12-04T06:19:05.331Z,0.06
2022-12-04T06:21:36.261Z,-0.30
2022-12-04T06:24:05.458Z,0.04
2022-12-04T06:26:33.627Z,-0.18
2022-12-04T06:29:02.112Z,0.05
2022-12-04T06:31:33.724Z,0.09
2022-12-04T06:34:02.143Z,0.08
2022-12-04T06:36:30.726Z,-0.18
2022-12-04T06:38:58.790Z,0.09
2022-12-04T06:41:28.444Z,0.05
2022-12-04T06:43:57.774Z,0.11
2022-12-04T06:46:35.057Z,0.07
2022-12-04T06:49:03.643Z,0.06
2022-12-04T06:51:40.104Z,0.13
2022-12-04T06:54:09.507Z,0.12
2022-12-04T06:56:38.036Z,0.02
2022-12-04T06:59:06.294Z,0.20
2022-12-04T07:01:35.913Z,0.19
2022-12-04T07:04:04.722Z,-0.08
2022-12-04T07:06:38.656Z,-0.05
2022-12-04T07:09:13.739Z,0.18
2022-12-04T07:11:43.838Z,0.30
2022-12-04T07:14:13.247Z,0.03
2022-12-04T07:16:42.577Z,0.24
2022-12-04T07:19:14.391Z,0.09
2022-12-04T07:21:42.804Z,0.31
2022-12-04T07:24:16.830Z,-0.02
2022-12-04T07:26:45.405Z,0.19
2022-12-04T07:29:14.402Z,0.28
2022-12-04T07:31:44.712Z,0.26
2022-12-04T07:34:12.752Z,0.00
2022-12-04T07:36:41.085Z,0.28
2022-12-04T07:39:10.375Z,0.33
2022-12-04T07:41:38.477Z,0.41
2022-12-04T07:44:08.617Z,0.40
2022-12-04T07:46:36.902Z,0.39
2022-12-04T07:49:04.841Z,0.37
2022-12-04T07:51:32.995Z,-0.04
2022-12-04T07:54:03.979Z,0.09
2022-12-04T07:56:33.577Z,0.27
2022-12-04T07:59:02.375Z,0.37
2022-12-04T08:01:31.030Z,0.36
2022-12-04T08:04:01.214Z,0.33
2022-12-04T08:06:33.039Z,0.44
2022-12-04T08:09:06.183Z,0.42
2022-12-04T08:11:37.964Z,0.41
2022-12-04T08:14:09.105Z,0.47
2022-12-04T08:16:37.444Z,0.51
2022-12-04T08:19:05.786Z,0.55
2022-12-04T08:21:34.228Z,0.51
2022-12-04T08:24:03.237Z,0.34
2022-12-04T08:26:33.893Z,0.52
2022-12-04T08:29:03.189Z,0.33
2022-12-04T08:31:33.231Z,0.59
2022-12-04T08:34:05.103Z,0.63
2022-12-04T08:36:33.972Z,0.52
2022-12-04T08:39:02.092Z,0.64
2022-12-04T08:41:30.594Z,0.55
2022-12-04T08:43:59.020Z,0.21
2022-12-04T08:46:30.662Z,0.61
2022-12-04T08:48:59.081Z,0.60
2022-12-04T08:51:31.763Z,0.60
2022-12-04T08:54:07.514Z,0.70
2022-12-04T08:56:37.692Z,0.51
2022-12-04T08:59:06.119Z,-0.04
2022-12-04T09:01:34.143Z,0.75
2022-12-04T09:04:02.685Z,0.72
2022-12-04T09:06:30.940Z,0.74
2022-12-04T09:08:59.064Z,0.57
2022-12-04T09:11:30.972Z,0.79
2022-12-04T09:14:01.388Z,0.82
2022-12-04T09:16:32.303Z,0.78
2022-12-04T09:19:00.351Z,0.75
2022-12-04T09:21:28.567Z,0.59
2022-12-04T09:23:57.330Z,0.75
2022-12-04T09:26:31.874Z,0.72
2022-12-04T09:29:02.375Z,0.68
2022-12-04T09:31:31.713Z,0.73
2022-12-04T09:34:02.236Z,0.82
2022-12-04T09:36:31.012Z,0.81
2022-12-04T09:38:59.616Z,0.83
2022-12-04T09:42:03.884Z,0.92
2022-12-04T09:44:42.536Z,0.84
2022-12-04T09:47:29.916Z,0.82
2022-12-04T09:50:23.052Z,0.82
2022-12-04T09:53:00.128Z,0.82
2022-12-04T09:55:38.974Z,0.38
2022-12-04T09:58:19.424Z,0.80
2022-12-04T10:00:52.165Z,0.87
2022-12-04T10:03:25.598Z,0.89
2022-12-04T10:06:16.708Z,0.80
2022-12-04T10:08:50.990Z,0.88
2022-12-04T10:11:52.349Z,0.68
2022-12-04T10:14:45.958Z,0.98
2022-12-04T10:17:33.122Z,0.31
2022-12-04T10:20:27.775Z,1.00
2022-12-04T10:23:13.950Z,1.12
2022-12-04T10:25:43.406Z,0.96
2022-12-04T10:28:43.024Z,1.02
2022-12-04T10:31:15.179Z,0.97
2022-12-04T10:33:57.036Z,0.90
2022-12-04T10:36:32.104Z,1.02
2022-12-04T10:39:32.068Z,0.83
2022-12-04T10:42:18.491Z,1.09
2022-12-04T10:44:49.278Z,0.97
2022-12-04T10:47:17.662Z,0.94
2022-12-04T10:49:46.843Z,0.77
2022-12-04T10:52:15.012Z,0.71
2022-12-04T10:55:02.281Z,0.95
2022-12-04T10:57:45.588Z,0.82
2022-12-04T11:00:35.265Z,0.79
2022-12-04T11:03:22.583Z,0.90
2022-12-04T11:05:57.779Z,0.91
2022-12-04T11:08:41.160Z,0.40
2022-12-04T11:11:14.947Z,0.98
2022-12-04T11:13:44.200Z,0.27
2022-12-04T11:16:44.933Z,0.39
2022-12-04T11:19:36.476Z,0.91
2022-12-04T11:22:18.037Z,0.83
2022-12-04T11:24:57.746Z,0.28
2022-12-04T11:27:35.449Z,0.72
2022-12-04T11:30:20.527Z,0.85
2022-12-04T11:32:49.020Z,0.85
2022-12-04T11:35:28.790Z,0.77
2022-12-04T11:38:10.413Z,0.88
2022-12-04T11:40:38.742Z,0.93
2022-12-04T11:43:21.049Z,0.81
2022-12-04T11:46:04.690Z,0.81
2022-12-04T11:48:46.092Z,0.84
2022-12-04T11:51:29.352Z,0.79
2022-12-04T11:54:15.259Z,0.62
2022-12-04T11:57:09.111Z,0.83
2022-12-04T12:00:02.690Z,0.56
2022-12-04T12:03:27.711Z,0.88
2022-12-04T12:06:21.005Z,0.85
2022-12-04T12:09:06.797Z,0.90
2022-12-04T12:12:10.440Z,0.94
2022-12-04T12:15:17.081Z,0.96
2022-12-04T12:18:16.457Z,0.79
2022-12-04T12:21:19.556Z,1.01
2022-12-04T12:24:20.315Z,0.96
2022-12-04T12:27:17.857Z,0.86
2022-12-04T12:30:19.430Z,0.97
2022-12-04T12:33:25.273Z,0.72
2022-12-04T12:36:05.856Z,0.91
2022-12-04T12:38:57.994Z,0.87
2022-12-04T12:41:52.573Z,0.80
2022-12-04T12:44:46.852Z,0.83
2022-12-04T12:47:23.538Z,0.28
2022-12-04T12:50:04.249Z,0.78
2022-12-04T12:52:58.794Z,0.72
2022-12-04T12:55:44.941Z,0.00
2022-12-04T12:58:29.600Z,0.47
2022-12-04T13:01:38.695Z,0.72
2022-12-04T13:08:11.944Z,0.78
2022-12-04T13:11:00.984Z,0.72
2022-12-04T13:14:00.049Z,-0.15
2022-12-04T13:16:58.177Z,0.72
2022-12-04T13:19:53.040Z,0.38
2022-12-04T13:23:11.144Z,0.39
2022-12-04T13:26:21.683Z,0.73
2022-12-04T13:29:13.877Z,0.78
2022-12-04T13:31:59.281Z,0.14
2022-12-04T13:38:41.741Z,-0.15
2022-12-04T13:41:18.925Z,-0.31
2022-12-04T13:44:06.918Z,0.25
2022-12-04T13:46:49.894Z,0.65
2022-12-04T13:49:17.980Z,0.64
2022-12-04T13:51:48.285Z,0.49
2022-12-04T13:54:16.287Z,0.61
2022-12-04T13:56:51.631Z,0.64
2022-12-04T13:59:28.515Z,0.64
2022-12-04T14:02:37.928Z,0.57
2022-12-04T14:05:13.398Z,0.32
2022-12-04T14:08:08.084Z,0.53
2022-12-04T14:10:40.442Z,0.63
2022-12-04T14:13:28.288Z,0.65
2022-12-04T14:16:45.089Z,0.50
2022-12-04T14:19:34.879Z,0.54
2022-12-04T14:22:06.873Z,0.65
2022-12-04T14:24:40.486Z,0.57
2022-12-04T14:27:42.959Z,0.69
2022-12-04T14:30:25.043Z,0.69
2022-12-04T14:33:30.079Z,0.54
2022-12-04T14:36:18.288Z,0.68
2022-12-04T14:38:51.268Z,0.65
2022-12-04T14:41:30.110Z,0.48
2022-12-04T14:44:00.750Z,0.37
2022-12-04T14:47:00.260Z,0.67
2022-12-04T14:49:46.703Z,0.30
2022-12-04T14:52:41.701Z,0.64
2022-12-04T14:56:08.569Z,0.61
2022-12-04T14:58:39.223Z,-0.26
2022-12-04T15:01:29.652Z,0.63
2022-12-04T15:04:22.809Z,0.63
2022-12-04T15:06:59.682Z,0.62
2022-12-04T15:09:47.808Z,0.63
2022-12-04T15:12:34.393Z,0.51
2022-12-04T15:15:19.795Z,0.61
2022-12-04T15:18:10.099Z,0.32
2022-12-04T15:20:59.359Z,0.65
2022-12-04T15:23:41.739Z,0.63
2022-12-04T15:26:20.792Z,-0.20
2022-12-04T15:29:01.438Z,0.64
2022-12-04T15:31:43.922Z,0.66
2022-12-04T15:34:18.217Z,0.40
2022-12-04T15:37:08.123Z,0.63
2022-12-04T15:39:38.201Z,0.61
2022-12-04T15:42:22.615Z,0.39
2022-12-04T15:45:04.970Z,0.62
2022-12-04T15:48:01.412Z,0.64
2022-12-04T15:50:31.611Z,0.64
2022-12-04T15:53:06.795Z,0.59
2022-12-04T15:55:53.271Z,0.58
2022-12-04T15:58:42.139Z,0.54
2022-12-04T16:01:15.800Z,0.09
2022-12-04T16:03:44.169Z,0.55
2022-12-04T16:06:28.642Z,0.57
2022-12-04T16:09:22.289Z,0.60
2022-12-04T16:12:22.930Z,0.53
2022-12-04T16:14:56.332Z,0.51
2022-12-04T16:17:34.249Z,0.27
2022-12-04T16:20:10.861Z,0.33
2022-12-04T16:22:44.456Z,0.11
2022-12-04T16:25:18.056Z,0.68
2022-12-04T16:27:58.547Z,0.65
2022-12-04T16:30:39.889Z,0.03
2022-12-04T16:33:31.222Z,0.01
2022-12-04T16:36:36.449Z,-0.09
2022-12-04T16:39:41.038Z,0.05
2022-12-04T16:42:28.174Z,-0.21
2022-12-04T16:45:38.031Z,0.23
2022-12-04T16:48:10.531Z,-0.25
2022-12-04T16:50:45.003Z,-0.18
2022-12-04T16:53:29.463Z,-0.04
2022-12-04T16:56:11.093Z,0.02
2022-12-04T16:58:45.479Z,0.62
2022-12-04T17:01:45.912Z,-0.43
2022-12-04T17:04:23.273Z,0.03
2022-12-04T17:07:18.316Z,-0.03
2022-12-04T17:10:07.761Z,-0.47
2022-12-04T17:12:51.259Z,0.56
2022-12-04T17:15:48.509Z,0.60
2022-12-04T17:18:21.578Z,0.44
2022-12-04T17:20:50.875Z,0.55
2022-12-04T17:23:18.924Z,0.56
2022-12-04T17:25:49.247Z,0.66
2022-12-04T17:28:19.053Z,0.36
2022-12-04T17:30:47.525Z,0.71
2022-12-04T17:33:16.939Z,0.74
2022-12-04T17:35:45.202Z,0.68
2022-12-04T17:38:13.525Z,0.57
2022-12-04T17:40:41.793Z,0.65
2022-12-04T17:43:10.080Z,0.30
2022-12-04T17:45:43.769Z,-0.38
2022-12-04T17:48:11.934Z,0.22
2022-12-04T17:50:40.179Z,0.48
2022-12-04T17:53:08.266Z,0.26
2022-12-04T17:55:36.797Z,0.48
2022-12-04T17:58:05.032Z,0.21
2022-12-04T18:00:43.969Z,0.14
2022-12-04T18:03:27.237Z,0.51
2022-12-04T18:06:19.979Z,-0.06
2022-12-04T18:09:04.016Z,-0.32
2022-12-04T18:11:43.911Z,-0.44
2022-12-04T18:14:25.752Z,-0.46
2022-12-04T18:17:01.627Z,-0.42
2022-12-04T18:19:41.820Z,-0.48
2022-12-04T18:22:30.497Z,-0.20
2022-12-04T18:25:04.604Z,-0.34
2022-12-04T18:27:42.050Z,-0.14
2022-12-04T18:30:13.612Z,0.08
2022-12-04T18:32:44.480Z,0.47
2022-12-04T18:35:15.245Z,0.13
2022-12-04T18:37:43.290Z,0.39
2022-12-04T18:40:12.105Z,0.45
2022-12-04T18:42:40.187Z,0.36
2022-12-04T18:45:09.236Z,0.44
2022-12-04T18:47:37.254Z,0.45
2022-12-04T18:50:06.221Z,0.48
2022-12-04T18:52:37.864Z,0.52
2022-12-04T18:55:16.884Z,0.45
2022-12-04T18:57:45.218Z,0.46
2022-12-04T19:00:22.924Z,0.21
2022-12-04T19:02:56.891Z,0.21
2022-12-04T19:05:25.688Z,0.50
2022-12-04T19:07:53.984Z,0.42
2022-12-04T19:10:22.420Z,0.16
2022-12-04T19:12:54.297Z,0.30
2022-12-04T19:15:25.166Z,-0.58
2022-12-04T19:18:01.550Z,0.36
2022-12-04T19:20:35.513Z,0.35
2022-12-04T19:23:07.099Z,0.18
2022-12-04T19:25:35.572Z,0.10
2022-12-04T19:28:05.779Z,0.27
2022-12-04T19:30:36.418Z,0.21
2022-12-04T19:33:04.312Z,0.34
2022-12-04T19:35:32.400Z,0.28
2022-12-04T19:38:00.919Z,0.26
2022-12-04T19:40:29.219Z,-0.20
2022-12-04T19:43:02.944Z,0.05
2022-12-04T19:45:31.399Z,0.29
2022-12-04T19:47:59.516Z,0.29
2022-12-04T19:50:28.315Z,-0.02
2022-12-04T19:52:58.689Z,0.33
2022-12-04T19:55:26.932Z,0.23
2022-12-04T19:57:57.887Z,0.26
2022-12-04T20:00:26.582Z,0.25
2022-12-04T20:02:54.750Z,0.11
2022-12-04T20:05:26.025Z,0.24
2022-12-04T20:10:28.259Z,0.11
2022-12-04T20:12:58.281Z,0.23
2022-12-04T20:15:26.404Z,0.18
2022-12-04T20:17:56.964Z,-0.02
2022-12-04T20:20:24.992Z,0.03
2022-12-04T20:22:53.239Z,0.19
2022-12-04T20:25:22.235Z,0.12
2022-12-04T20:27:51.879Z,0.12
2022-12-04T20:30:19.917Z,0.11
2022-12-04T20:32:52.227Z,0.04
2022-12-04T20:35:20.466Z,0.15
2022-12-04T20:37:51.230Z,-0.24
2022-12-04T20:40:19.404Z,0.11
2022-12-04T20:42:49.641Z,0.15
2022-12-04T20:45:18.117Z,0.16
2022-12-04T20:47:50.779Z,0.17
2022-12-04T20:50:19.501Z,0.10
2022-12-04T20:52:50.738Z,-0.73
2022-12-04T20:55:19.012Z,0.11
2022-12-04T20:57:47.672Z,0.22
2022-12-04T21:00:16.544Z,0.00
2022-12-04T21:02:47.540Z,0.18
2022-12-04T21:05:18.062Z,0.03
2022-12-04T21:07:46.386Z,0.10
2022-12-04T21:10:14.464Z,0.03
2022-12-04T21:13:03.000Z,0.11
2022-12-04T21:15:49.661Z,-0.56
2022-12-04T21:18:17.988Z,0.11
2022-12-04T21:20:45.998Z,-0.34
2022-12-04T21:23:14.766Z,0.03
2022-12-04T21:25:46.269Z,-0.72
2022-12-04T21:28:14.354Z,0.00
2022-12-04T21:30:44.505Z,-0.12
2022-12-04T21:33:45.526Z,-0.71
2022-12-04T21:37:03.248Z,-0.86
2022-12-04T21:39:35.099Z,-0.05
2022-12-04T21:42:31.381Z,-0.74
2022-12-04T21:45:15.198Z,-0.67
2022-12-04T21:47:53.979Z,-0.65
2022-12-04T21:50:26.419Z,-0.36
2022-12-04T21:53:06.398Z,-0.70
2022-12-04T21:55:54.464Z,-0.71
2022-12-04T21:58:31.052Z,-1.10
2022-12-04T22:01:22.338Z,-0.51
2022-12-04T22:04:06.334Z,0.01
2022-12-04T22:06:50.884Z,-1.00
2022-12-04T22:09:27.534Z,-0.92
2022-12-04T22:12:47.964Z,-0.88
2022-12-04T22:15:14.693Z,-0.66
2022-12-04T22:17:54.968Z,-0.01
2022-12-04T22:20:29.043Z,-0.89
2022-12-04T22:23:08.092Z,-0.79
2022-12-04T22:25:47.143Z,-1.01
2022-12-04T22:28:28.048Z,-0.43
2022-12-04T22:31:07.878Z,-0.38
2022-12-04T22:33:44.863Z,-0.71
2022-12-04T22:36:20.174Z,-0.14
2022-12-04T22:39:10.941Z,0.03
2022-12-04T22:41:56.347Z,0.00
2022-12-04T22:44:34.718Z,-0.24
2022-12-04T22:47:04.876Z,-0.92
2022-12-04T22:49:48.008Z,-0.35
2022-12-04T22:52:47.387Z,0.10
2022-12-04T22:55:26.411Z,-0.70
2022-12-04T22:58:04.924Z,-0.71
2022-12-04T23:00:42.265Z,-0.79
2022-12-04T23:03:22.167Z,-0.90
2022-12-04T23:06:05.189Z,-0.48
2022-12-04T23:08:35.709Z,-0.59
2022-12-04T23:11:26.125Z,-0.30
2022-12-04T23:14:06.888Z,-0.45
2022-12-04T23:16:43.097Z,0.03
2022-12-04T23:19:16.861Z,-0.17
2022-12-04T23:21:49.642Z,-0.03
2022-12-04T23:24:21.482Z,0.01
2022-12-04T23:26:52.819Z,0.18
2022-12-04T23:29:51.348Z,0.20
2022-12-04T23:32:09.190Z,-0.31
2022-12-04T23:34:37.187Z,0.16
2022-12-04T23:37:10.038Z,0.24
2022-12-04T23:39:38.282Z,-0.36
2022-12-04T23:42:06.340Z,0.17
2022-12-04T23:44:34.110Z,-0.19
2022-12-04T23:47:02.369Z,0.20
2022-12-04T23:49:30.575Z,0.16
2022-12-04T23:51:58.626Z,-0.22
2022-12-04T23:54:36.406Z,-0.19
2022-12-04T23:57:04.808Z,0.06
2022-12-04T23:59:35.839Z,0.12
